createdAt,value
2019-03-05T00:01:49.144Z,68.58
2019-03-05T00:04:18.709Z,68.27
2019-03-05T00:06:48.987Z,68.10
2019-03-05T00:09:20.376Z,68.85
2019-03-05T00:11:50.168Z,68.69
2019-03-05T00:14:22.843Z,68.50
2019-03-05T00:16:52.605Z,68.61
2019-03-05T00:19:22.360Z,68.35
2019-03-05T00:21:52.260Z,68.23
2019-03-05T00:25:01.739Z,68.29
2019-03-05T00:27:33.838Z,68.18
2019-03-05T00:30:35.247Z,68.62
2019-03-05T00:33:47.274Z,69.00
2019-03-05T00:36:30.352Z,68.71
2019-03-05T00:39:25.707Z,68.54
2019-03-05T00:42:49.847Z,67.84
2019-03-05T00:45:51.450Z,67.65
2019-03-05T00:48:42.258Z,68.33
2019-03-05T00:51:33.796Z,68.15
2019-03-05T00:54:19.900Z,67.82
2019-03-05T00:57:17.890Z,68.53
2019-03-05T01:00:07.004Z,68.29
2019-03-05T01:03:05.517Z,68.19
2019-03-05T01:06:23.904Z,67.87
2019-03-05T01:08:58.329Z,67.54
2019-03-05T01:11:28.009Z,67.97
2019-03-05T01:13:57.787Z,68.17
2019-03-05T01:16:29.281Z,67.52
2019-03-05T01:18:59.082Z,67.24
2019-03-05T01:21:28.660Z,67.49
2019-03-05T01:23:58.398Z,67.57
2019-03-05T01:26:28.040Z,66.72
2019-03-05T01:28:57.671Z,66.36
2019-03-05T01:31:45.269Z,66.29
2019-03-05T01:37:09.349Z,66.79
2019-03-05T01:39:43.433Z,67.28
2019-03-05T01:42:13.184Z,67.38
2019-03-05T01:44:43.638Z,67.80
2019-03-05T01:47:13.295Z,68.00
2019-03-05T01:49:43.006Z,68.02
2019-03-05T01:52:12.646Z,68.40
2019-03-05T01:54:42.362Z,68.23
2019-03-05T01:57:12.031Z,68.42
2019-03-05T01:59:41.604Z,68.36
2019-03-05T02:02:11.314Z,68.24
2019-03-05T02:04:40.918Z,68.48
2019-03-05T02:07:12.072Z,70.26
2019-03-05T02:09:41.705Z,71.99
2019-03-05T02:12:11.449Z,72.36
2019-03-05T02:14:41.458Z,73.96
2019-03-05T02:17:10.979Z,75.03
2019-03-05T02:19:44.053Z,76.26
2019-03-05T02:22:23.863Z,75.98
2019-03-05T02:25:06.798Z,76.49
2019-03-05T02:28:14.397Z,78.58
2019-03-05T02:34:14.179Z,79.80
2019-03-05T02:37:06.482Z,80.35
2019-03-05T02:39:55.948Z,80.07
2019-03-05T02:42:36.022Z,80.05
2019-03-05T02:45:42.922Z,80.19
2019-03-05T02:48:32.253Z,80.82
2019-03-05T02:51:13.370Z,79.62
2019-03-05T02:53:59.562Z,80.04
2019-03-05T02:57:10.510Z,80.47
2019-03-05T02:59:40.334Z,81.12
2019-03-05T03:02:28.117Z,82.21
2019-03-05T03:05:02.079Z,82.14
2019-03-05T03:07:31.766Z,82.66
2019-03-05T03:10:20.807Z,82.21
2019-03-05T03:12:50.540Z,82.03
2019-03-05T03:15:21.110Z,81.43
2019-03-05T03:17:50.924Z,81.15
2019-03-05T03:20:24.361Z,80.53
2019-03-05T03:22:54.095Z,80.46
2019-03-05T03:25:23.974Z,79.94
2019-03-05T03:27:53.835Z,79.79
2019-03-05T03:30:25.639Z,79.90
2019-03-05T03:32:55.490Z,80.56
2019-03-05T03:35:32.404Z,82.10
2019-03-05T03:38:02.051Z,82.44
2019-03-05T03:40:31.763Z,82.20
2019-03-05T03:43:01.617Z,82.70
2019-03-05T03:45:31.242Z,82.07
2019-03-05T03:48:00.890Z,82.19
2019-03-05T03:50:31.563Z,81.75
2019-03-05T03:53:01.736Z,82.03
2019-03-05T03:55:32.145Z,81.79
2019-03-05T03:58:01.906Z,81.59
2019-03-05T04:00:31.581Z,81.57
2019-03-05T04:03:01.147Z,82.56
2019-03-05T04:05:31.287Z,83.07
2019-03-05T04:08:01.071Z,83.43
2019-03-05T04:10:30.836Z,82.63
2019-03-05T04:13:00.991Z,82.28
2019-03-05T04:15:30.670Z,81.29
2019-03-05T04:18:02.351Z,80.11
2019-03-05T04:20:33.155Z,80.65
2019-03-05T04:23:02.805Z,81.33
2019-03-05T04:25:32.632Z,81.05
2019-03-05T04:28:02.623Z,80.69
2019-03-05T04:30:32.311Z,81.07
2019-03-05T04:33:01.807Z,81.71
2019-03-05T04:35:31.537Z,82.68
2019-03-05T04:38:02.731Z,80.97
2019-03-05T04:40:32.334Z,80.29
2019-03-05T04:43:01.960Z,79.99
2019-03-05T04:45:44.147Z,79.19
2019-03-05T04:48:14.560Z,78.44
2019-03-05T04:50:51.690Z,78.26
2019-03-05T04:53:21.332Z,77.92
2019-03-05T04:55:51.230Z,77.83
2019-03-05T04:58:20.907Z,76.70
2019-03-05T05:00:50.821Z,77.33
2019-03-05T05:03:20.542Z,77.51
2019-03-05T05:05:50.290Z,77.42
2019-03-05T05:08:20.804Z,78.12
2019-03-05T05:10:50.448Z,79.96
2019-03-05T05:13:20.106Z,79.91
2019-03-05T05:15:49.657Z,80.96
2019-03-05T05:18:19.257Z,80.76
2019-03-05T05:20:49.326Z,81.00
2019-03-05T05:23:18.876Z,80.87
2019-03-05T05:25:48.634Z,80.41
2019-03-05T05:28:18.223Z,79.75
2019-03-05T05:30:49.744Z,79.69
2019-03-05T05:33:19.448Z,79.04
2019-03-05T05:35:49.124Z,80.13
2019-03-05T05:38:18.785Z,78.75
2019-03-05T05:40:52.072Z,78.42
2019-03-05T05:43:31.197Z,77.84
2019-03-05T05:46:00.812Z,77.56
2019-03-05T05:48:30.411Z,78.23
2019-03-05T05:51:00.750Z,78.37
2019-03-05T05:53:30.350Z,77.97
2019-03-05T05:56:00.002Z,78.54
2019-03-05T05:58:29.642Z,77.85
2019-03-05T06:01:00.965Z,77.54
2019-03-05T06:03:30.976Z,77.61
2019-03-05T06:06:01.644Z,77.79
2019-03-05T06:08:32.005Z,78.12
2019-03-05T06:11:01.605Z,78.31
2019-03-05T06:13:31.349Z,78.09
2019-03-05T06:16:01.032Z,78.06
2019-03-05T06:18:30.707Z,77.76
2019-03-05T06:21:01.743Z,76.93
2019-03-05T06:23:31.485Z,76.61
2019-03-05T06:26:01.155Z,76.55
2019-03-05T06:28:31.213Z,76.98
2019-03-05T06:31:01.072Z,76.57
2019-03-05T06:33:30.800Z,77.53
2019-03-05T06:36:00.617Z,76.98
2019-03-05T06:38:30.239Z,77.18
2019-03-05T06:41:00.010Z,76.62
2019-03-05T06:43:29.643Z,76.04
2019-03-05T06:45:59.338Z,76.08
2019-03-05T06:48:28.952Z,76.58
2019-03-05T06:51:00.230Z,76.50
2019-03-05T06:53:29.924Z,77.14
2019-03-05T06:55:59.556Z,76.48
2019-03-05T06:58:29.319Z,76.76
2019-03-05T07:00:58.994Z,76.39
2019-03-05T07:03:28.655Z,76.13
2019-03-05T07:06:44.281Z,76.20
2019-03-05T07:09:36.714Z,75.90
2019-03-05T07:12:31.229Z,73.28
2019-03-05T07:15:29.651Z,71.60
2019-03-05T07:18:03.916Z,71.78
2019-03-05T07:20:59.445Z,72.92
2019-03-05T07:23:56.621Z,71.36
2019-03-05T07:26:26.479Z,68.39
2019-03-05T07:28:56.556Z,67.78
2019-03-05T07:31:26.234Z,67.49
2019-03-05T07:33:55.857Z,64.12
2019-03-05T07:36:25.807Z,62.26
2019-03-05T07:38:55.674Z,63.46
2019-03-05T07:41:25.483Z,61.66
2019-03-05T07:43:55.330Z,60.56
2019-03-05T07:46:25.147Z,61.84
2019-03-05T07:48:54.697Z,62.41
2019-03-05T07:51:24.411Z,61.47
2019-03-05T07:53:54.207Z,61.50
2019-03-05T07:56:23.882Z,58.65
2019-03-05T07:58:53.671Z,56.73
2019-03-05T08:01:23.571Z,55.68
2019-03-05T08:03:53.400Z,54.85
2019-03-05T08:06:22.988Z,51.28
2019-03-05T08:09:29.712Z,48.79
2019-03-05T08:12:34.002Z,48.28
2019-03-05T08:15:30.517Z,48.55
2019-03-05T08:18:00.172Z,45.74
2019-03-05T08:20:29.945Z,44.69
2019-03-05T08:23:01.336Z,43.81
2019-03-05T08:25:31.042Z,44.80
2019-03-05T08:28:00.827Z,51.53
2019-03-05T08:30:31.084Z,52.70
2019-03-05T08:33:01.390Z,55.23
2019-03-05T08:35:31.013Z,54.92
2019-03-05T08:38:00.881Z,56.42
2019-03-05T08:40:33.003Z,55.20
2019-03-05T08:43:02.753Z,55.46
2019-03-05T08:45:32.636Z,59.22
2019-03-05T08:48:02.376Z,61.60
2019-03-05T08:50:31.991Z,60.66
2019-03-05T08:53:01.602Z,63.15
2019-03-05T08:55:31.428Z,64.31
2019-03-05T08:58:01.162Z,64.69
2019-03-05T09:00:30.999Z,63.51
2019-03-05T09:03:00.653Z,60.97
2019-03-05T09:05:30.422Z,59.96
2019-03-05T09:08:00.481Z,59.92
2019-03-05T09:10:31.062Z,61.77
2019-03-05T09:13:00.856Z,62.09
2019-03-05T09:15:30.786Z,63.07
2019-03-05T09:18:00.465Z,63.49
2019-03-05T09:20:30.351Z,63.62
2019-03-05T09:23:00.171Z,62.04
2019-03-05T09:25:30.334Z,60.51
2019-03-05T09:28:00.085Z,62.69
2019-03-05T09:30:31.720Z,62.53
2019-03-05T09:33:01.465Z,63.19
2019-03-05T09:35:31.175Z,64.09
2019-03-05T09:38:00.874Z,63.80
2019-03-05T09:40:33.051Z,64.23
2019-03-05T09:43:02.853Z,63.13
2019-03-05T09:45:32.880Z,62.89
2019-03-05T09:48:02.645Z,57.49
2019-03-05T09:50:32.444Z,48.96
2019-03-05T09:53:02.532Z,43.70
2019-03-05T09:55:33.887Z,41.11
2019-03-05T09:58:07.884Z,39.46
2019-03-05T10:00:35.911Z,39.09
2019-03-05T10:03:07.602Z,41.42
2019-03-05T10:05:37.308Z,44.83
2019-03-05T10:08:07.382Z,50.15
2019-03-05T10:10:37.226Z,52.45
2019-03-05T10:13:07.248Z,53.43
2019-03-05T10:15:37.134Z,54.97
2019-03-05T10:18:12.819Z,55.71
2019-03-05T10:20:38.376Z,55.54
2019-03-05T10:23:10.977Z,56.03
2019-03-05T10:25:40.744Z,55.36
2019-03-05T10:28:10.530Z,53.66
2019-03-05T10:30:46.841Z,53.35
2019-03-05T10:33:18.115Z,53.37
2019-03-05T10:35:47.922Z,53.83
2019-03-05T10:38:17.810Z,55.71
2019-03-05T10:40:54.321Z,56.12
2019-03-05T10:43:24.358Z,56.68
2019-03-05T10:45:54.111Z,56.42
2019-03-05T10:48:26.112Z,56.64
2019-03-05T10:50:56.694Z,57.66
2019-03-05T10:53:26.860Z,57.22
2019-03-05T10:55:56.562Z,58.22
2019-03-05T10:58:33.963Z,58.13
2019-03-05T11:00:58.255Z,57.91
2019-03-05T11:03:32.014Z,58.40
2019-03-05T11:06:03.088Z,58.69
2019-03-05T11:08:32.871Z,56.34
2019-03-05T11:11:13.116Z,55.28
2019-03-05T11:13:36.162Z,51.92
2019-03-05T11:16:07.669Z,43.32
2019-03-05T11:18:38.726Z,45.09
2019-03-05T11:21:08.621Z,44.65
2019-03-05T11:23:38.288Z,38.12
2019-03-05T11:26:10.871Z,33.45
2019-03-05T11:28:40.654Z,34.31
2019-03-05T11:31:11.412Z,33.91
2019-03-05T11:33:41.235Z,37.27
2019-03-05T11:36:12.679Z,33.62
2019-03-05T11:38:42.675Z,35.65
2019-03-05T11:41:12.634Z,36.23
2019-03-05T11:43:42.360Z,37.53
2019-03-05T11:46:18.125Z,37.46
2019-03-05T11:48:47.924Z,42.51
2019-03-05T11:51:17.830Z,44.53
2019-03-05T11:53:47.558Z,45.45
2019-03-05T11:56:17.414Z,47.12
2019-03-05T11:58:47.206Z,48.02
2019-03-05T12:01:18.878Z,51.03
2019-03-05T12:03:48.996Z,52.74
2019-03-05T12:06:18.752Z,53.47
2019-03-05T12:08:48.646Z,54.69
2019-03-05T12:11:18.548Z,56.41
2019-03-05T12:13:48.203Z,56.91
2019-03-05T12:16:17.915Z,58.72
2019-03-05T12:18:47.513Z,59.43
2019-03-05T12:21:19.646Z,58.97
2019-03-05T12:23:49.437Z,59.67
2019-03-05T12:26:19.100Z,61.04
2019-03-05T12:28:49.355Z,61.42
2019-03-05T12:31:19.539Z,62.33
2019-03-05T12:33:49.252Z,63.07
2019-03-05T12:36:18.957Z,66.81
2019-03-05T12:38:48.665Z,69.55
2019-03-05T12:41:18.375Z,70.50
2019-03-05T12:43:48.132Z,70.39
2019-03-05T12:46:19.668Z,70.56
2019-03-05T12:48:50.888Z,70.38
2019-03-05T12:51:20.572Z,70.35
2019-03-05T12:53:50.357Z,70.38
2019-03-05T12:56:23.820Z,70.23
2019-03-05T12:58:51.727Z,68.84
2019-03-05T13:01:21.633Z,66.91
2019-03-05T13:03:51.484Z,64.78
2019-03-05T13:06:21.307Z,65.96
2019-03-05T13:08:51.546Z,66.11
2019-03-05T13:11:21.816Z,66.84
2019-03-05T13:14:05.404Z,66.48
2019-03-05T13:16:24.412Z,66.83
2019-03-05T13:18:54.213Z,67.24
2019-03-05T13:21:23.927Z,68.28
2019-03-05T13:23:53.691Z,68.04
2019-03-05T13:26:23.476Z,66.89
2019-03-05T13:28:53.058Z,67.50
2019-03-05T13:31:22.799Z,67.24
2019-03-05T13:33:54.014Z,67.21
2019-03-05T13:36:23.859Z,67.21
2019-03-05T13:38:53.735Z,64.63
2019-03-05T13:41:23.553Z,60.54
2019-03-05T13:43:55.482Z,58.50
2019-03-05T13:46:25.939Z,60.05
2019-03-05T13:49:14.413Z,57.49
2019-03-05T13:52:09.130Z,56.72
2019-03-05T13:55:23.543Z,59.92
2019-03-05T13:58:17.261Z,59.70
2019-03-05T14:00:47.037Z,60.63
2019-03-05T14:03:24.698Z,60.14
2019-03-05T14:06:13.835Z,61.52
2019-03-05T14:08:54.021Z,62.55
2019-03-05T14:11:23.774Z,61.55
2019-03-05T14:13:53.670Z,59.00
2019-03-05T14:16:25.519Z,55.09
2019-03-05T14:18:55.252Z,53.03
2019-03-05T14:21:25.032Z,51.83
2019-03-05T14:23:54.934Z,52.36
2019-03-05T14:26:24.928Z,53.46
2019-03-05T14:28:54.662Z,53.66
2019-03-05T14:31:24.757Z,49.90
2019-03-05T14:33:54.473Z,46.26
2019-03-05T14:36:24.512Z,45.84
2019-03-05T14:38:54.544Z,46.53
2019-03-05T14:41:25.155Z,48.03
2019-03-05T14:43:55.204Z,49.66
2019-03-05T14:46:25.290Z,48.70
2019-03-05T14:48:55.193Z,46.53
2019-03-05T14:51:25.340Z,43.89
2019-03-05T14:53:55.337Z,39.34
2019-03-05T14:56:25.298Z,37.37
2019-03-05T14:58:55.160Z,36.63
2019-03-05T15:01:25.165Z,36.04
2019-03-05T15:03:55.078Z,35.37
2019-03-05T15:06:25.081Z,36.52
2019-03-05T15:08:54.832Z,39.17
2019-03-05T15:11:24.743Z,43.21
2019-03-05T15:13:54.600Z,44.51
2019-03-05T15:16:24.573Z,42.20
2019-03-05T15:18:54.474Z,40.68
2019-03-05T15:21:24.234Z,40.69
2019-03-05T15:23:54.525Z,40.22
2019-03-05T15:26:24.339Z,40.87
2019-03-05T15:28:56.448Z,39.53
2019-03-05T15:31:25.802Z,39.83
2019-03-05T15:33:57.690Z,39.69
2019-03-05T15:36:27.550Z,41.49
2019-03-05T15:38:58.089Z,43.53
2019-03-05T15:41:27.993Z,47.68
2019-03-05T15:43:57.739Z,49.69
2019-03-05T15:46:27.819Z,51.66
2019-03-05T15:48:57.651Z,52.35
2019-03-05T15:51:27.330Z,52.61
2019-03-05T15:53:57.416Z,53.87
2019-03-05T15:56:27.161Z,54.70
2019-03-05T15:58:57.025Z,55.50
2019-03-05T16:01:27.394Z,55.66
2019-03-05T16:03:57.130Z,56.08
2019-03-05T16:06:30.170Z,56.18
2019-03-05T16:09:02.195Z,56.73
2019-03-05T16:11:30.252Z,54.31
2019-03-05T16:14:01.372Z,54.76
2019-03-05T16:16:32.023Z,54.10
2019-03-05T16:19:01.868Z,54.32
2019-03-05T16:21:32.581Z,54.72
2019-03-05T16:24:02.849Z,55.13
2019-03-05T16:26:33.195Z,56.13
2019-03-05T16:29:03.076Z,57.08
2019-03-05T16:31:41.019Z,57.22
2019-03-05T16:34:18.321Z,56.57
2019-03-05T16:36:49.852Z,56.54
2019-03-05T16:39:27.466Z,57.51
2019-03-05T16:41:58.293Z,57.32
2019-03-05T16:44:28.326Z,58.61
2019-03-05T16:47:02.740Z,59.27
2019-03-05T16:49:50.852Z,60.03
2019-03-05T16:52:25.042Z,59.81
2019-03-05T16:55:05.638Z,60.50
2019-03-05T16:57:37.039Z,60.84
2019-03-05T17:00:15.346Z,61.25
2019-03-05T17:02:47.886Z,61.57
2019-03-05T17:05:32.744Z,62.04
2019-03-05T17:08:10.467Z,62.85
2019-03-05T17:10:52.337Z,63.30
2019-03-05T17:13:22.149Z,63.99
2019-03-05T17:15:51.902Z,65.05
2019-03-05T17:18:21.728Z,65.85
2019-03-05T17:20:51.387Z,65.75
2019-03-05T17:23:21.095Z,66.06
2019-03-05T17:25:52.375Z,67.48
2019-03-05T17:28:22.113Z,67.79
2019-03-05T17:30:51.862Z,68.50
2019-03-05T17:33:22.279Z,68.95
2019-03-05T17:35:51.949Z,69.90
2019-03-05T17:38:23.707Z,70.87
2019-03-05T17:40:55.047Z,70.39
2019-03-05T17:43:25.424Z,70.58
2019-03-05T17:45:56.639Z,70.96
2019-03-05T17:48:26.292Z,72.67
2019-03-05T17:50:56.029Z,72.61
2019-03-05T17:53:25.916Z,73.35
2019-03-05T17:55:57.235Z,73.04
2019-03-05T17:58:26.849Z,73.82
2019-03-05T18:00:57.565Z,75.37
2019-03-05T18:03:27.365Z,74.90
2019-03-05T18:05:56.975Z,75.20
2019-03-05T18:08:26.855Z,74.59
2019-03-05T18:10:56.658Z,74.74
2019-03-05T18:13:26.494Z,75.37
2019-03-05T18:15:56.299Z,75.76
2019-03-05T18:18:26.780Z,76.18
2019-03-05T18:20:56.699Z,76.53
2019-03-05T18:23:26.835Z,76.75
2019-03-05T18:25:57.168Z,77.54
2019-03-05T18:28:27.483Z,76.90
2019-03-05T18:30:59.047Z,77.23
2019-03-05T18:33:29.571Z,77.17
2019-03-05T18:35:59.773Z,76.69
2019-03-05T18:38:29.719Z,77.14
2019-03-05T18:41:01.067Z,76.52
2019-03-05T18:43:33.981Z,76.97
2019-03-05T18:46:03.991Z,76.68
2019-03-05T18:48:34.498Z,76.89
2019-03-05T18:51:04.873Z,76.75
2019-03-05T18:53:34.962Z,76.06
2019-03-05T18:56:05.652Z,75.94
2019-03-05T18:58:35.731Z,76.74
2019-03-05T19:01:06.530Z,78.08
2019-03-05T19:03:36.813Z,77.30
2019-03-05T19:06:06.862Z,77.47
2019-03-05T19:08:36.911Z,78.27
2019-03-05T19:11:06.713Z,78.15
2019-03-05T19:13:36.386Z,78.58
2019-03-05T19:16:06.455Z,78.52
2019-03-05T19:18:36.372Z,77.36
2019-03-05T19:21:06.108Z,76.74
2019-03-05T19:23:37.317Z,76.53
2019-03-05T19:26:08.121Z,76.40
2019-03-05T19:28:37.928Z,75.87
2019-03-05T19:31:07.891Z,75.68
2019-03-05T19:33:38.139Z,74.46
2019-03-05T19:36:07.976Z,74.32
2019-03-05T19:38:37.706Z,75.15
2019-03-05T19:41:27.320Z,75.00
2019-03-05T19:43:57.478Z,75.55
2019-03-05T19:46:27.299Z,75.02
2019-03-05T19:48:57.236Z,75.16
2019-03-05T19:51:27.341Z,75.44
2019-03-05T19:53:57.132Z,74.79
2019-03-05T19:56:27.022Z,75.20
2019-03-05T19:58:57.213Z,75.81
2019-03-05T20:01:28.621Z,75.11
2019-03-05T20:04:00.341Z,75.51
2019-03-05T20:06:32.047Z,75.41
2019-03-05T20:09:01.902Z,75.27
2019-03-05T20:11:31.987Z,74.53
2019-03-05T20:14:01.801Z,74.42
2019-03-05T20:16:31.735Z,74.41
2019-03-05T20:19:01.698Z,74.57
2019-03-05T20:21:31.433Z,74.92
2019-03-05T20:24:01.567Z,75.95
2019-03-05T20:26:31.258Z,75.60
2019-03-05T20:29:02.878Z,75.46
2019-03-05T20:31:32.560Z,74.64
2019-03-05T20:34:02.438Z,74.71
2019-03-05T20:36:32.076Z,74.92
2019-03-05T20:39:02.259Z,74.67
2019-03-05T20:41:32.082Z,74.58
2019-03-05T20:44:01.892Z,74.64
2019-03-05T20:46:31.836Z,74.48
2019-03-05T20:49:01.534Z,74.29
2019-03-05T20:51:31.664Z,74.44
2019-03-05T20:54:01.495Z,74.35
2019-03-05T20:56:31.501Z,73.95
2019-03-05T20:59:01.175Z,74.10
2019-03-05T21:01:31.789Z,74.88
2019-03-05T21:04:01.625Z,75.18
2019-03-05T21:06:31.481Z,75.07
2019-03-05T21:09:01.296Z,74.40
2019-03-05T21:11:31.676Z,74.40
2019-03-05T21:14:01.284Z,74.23
2019-03-05T21:16:31.236Z,74.49
2019-03-05T21:19:01.070Z,74.44
2019-03-05T21:21:33.384Z,74.91
2019-03-05T21:24:03.091Z,74.15
2019-03-05T21:26:32.737Z,73.51
2019-03-05T21:29:02.441Z,73.79
2019-03-05T21:31:32.297Z,74.31
2019-03-05T21:34:03.195Z,74.34
2019-03-05T21:36:32.992Z,74.67
2019-03-05T21:39:04.750Z,74.51
2019-03-05T21:41:35.061Z,74.37
2019-03-05T21:44:05.198Z,74.64
2019-03-05T21:46:35.015Z,74.55
2019-03-05T21:49:06.277Z,75.01
2019-03-05T21:51:36.607Z,75.32
2019-03-05T21:54:06.692Z,74.36
2019-03-05T21:56:36.418Z,74.54
2019-03-05T21:59:06.094Z,74.43
2019-03-05T22:01:35.897Z,74.32
2019-03-05T22:04:05.698Z,74.45
2019-03-05T22:06:54.887Z,74.05
2019-03-05T22:09:24.739Z,74.00
2019-03-05T22:11:54.302Z,74.04
2019-03-05T22:14:24.005Z,73.89
2019-03-05T22:16:53.775Z,73.98
2019-03-05T22:19:23.636Z,73.56
2019-03-05T22:21:53.691Z,73.54
2019-03-05T22:24:23.369Z,73.16
2019-03-05T22:26:53.063Z,73.32
2019-03-05T22:29:22.660Z,73.29
2019-03-05T22:31:52.673Z,73.12
2019-03-05T22:34:22.370Z,72.96
2019-03-05T22:36:51.989Z,73.39
2019-03-05T22:39:21.803Z,73.10
2019-03-05T22:41:51.509Z,73.03
2019-03-05T22:44:21.217Z,73.28
2019-03-05T22:46:51.378Z,73.28
2019-03-05T22:49:20.892Z,74.35
2019-03-05T22:51:50.587Z,74.83
2019-03-05T22:54:20.441Z,75.42
2019-03-05T22:56:50.397Z,75.28
2019-03-05T22:59:19.986Z,75.18
2019-03-05T23:01:49.607Z,74.92
2019-03-05T23:04:20.556Z,74.78
2019-03-05T23:06:50.730Z,74.36
2019-03-05T23:09:22.920Z,74.70
2019-03-05T23:11:52.703Z,75.46
2019-03-05T23:14:22.582Z,75.36
2019-03-05T23:16:52.190Z,75.38
2019-03-05T23:19:22.480Z,75.38
2019-03-05T23:21:52.352Z,75.23
2019-03-05T23:24:22.279Z,75.15
2019-03-05T23:26:52.015Z,75.26
2019-03-05T23:29:23.821Z,75.09
2019-03-05T23:31:53.805Z,74.96
2019-03-05T23:34:23.606Z,74.91
2019-03-05T23:36:54.920Z,75.36
2019-03-05T23:39:24.699Z,75.02
2019-03-05T23:41:54.621Z,75.27
2019-03-05T23:44:24.416Z,74.79
2019-03-05T23:46:54.046Z,75.17
2019-03-05T23:49:23.569Z,75.35
2019-03-05T23:51:53.164Z,76.02
2019-03-05T23:54:23.392Z,75.99
2019-03-05T23:56:53.344Z,76.31
2019-03-05T23:59:23.545Z,76.56
